ADDS METAR Data INFO
IDs: Format: Raw Decoded Include TAF

Data at: 1017 UTC 14 Dec 2017

KIGM 140951Z AUTO 00000KT 10SM CLR 01/M15 A3001 RMK AO2 SLP127 T00061150
KIGM 140851Z AUTO 00000KT 10SM CLR M01/M16 A3000 RMK AO2 SLP126 T10111161 55004
KIGM 140751Z AUTO 16003KT 10SM CLR 01/M15 A3000 RMK AO2 SLP122 T00061150
KIGM 140651Z AUTO 00000KT 10SM CLR M01/M16 A3001 RMK AO2 SLP132 T10061156 402001006
KIGM 140551Z AUTO 18004KT 10SM CLR 01/M14 A3002 RMK AO2 SLP136 T00061144 10172 20006 50005
KIGM 140451Z AUTO VRB03KT 10SM CLR 02/M14 A3002 RMK AO2 SLP137 T00221139
KIGM 140351Z AUTO 18004KT 10SM CLR 04/M13 A3001 RMK AO2 SLP137 T00391133
KIGM 140251Z AUTO 14003KT 10SM CLR 04/M13 A3000 RMK AO2 SLP138 T00441133 57007
KIGM 140151Z AUTO 15013KT 10SM CLR 08/M13 A3000 RMK AO2 PRESFR SLP136 T00781128
KIGM 140051Z AUTO 06003KT 10SM CLR 09/M14 A3003 RMK AO2 SLP146 T00941139
KIGM 132351Z AUTO 01004KT 10SM CLR 17/M12 A3002 RMK AO2 SLP133 T01721117 10200 20139 56013
KIGM 132251Z AUTO 05005KT 10SM CLR 19/M11 A3003 RMK AO2 SLP133 T01891111
KIGM 132151Z AUTO 01005KT 10SM CLR 20/M12 A3004 RMK AO2 SLP134 T02001117
KIGM 132051Z AUTO 36007KT 10SM CLR 19/M12 A3006 RMK AO2 SLP142 T01941117 57027
KIGM 131951Z AUTO 35009KT 10SM CLR 19/M12 A3009 RMK AO2 SLP154 T01891117
KIGM 131851Z AUTO 03006KT 10SM CLR 17/M12 A3012 RMK AO2 SLP168 T01721122
KIGM 131751Z AUTO 01006KT 10SM CLR 14/M13 A3015 RMK AO2 SLP178 T01391128 10139 21006 58000
KIGM 131651Z AUTO 07006KT 10SM CLR 12/M12 A3016 RMK AO2 SLP184 T01171122
KIGM 131551Z AUTO 05003KT 10SM CLR 08/M13 A3016 RMK AO2 SLP184 T00831133
KIGM 131451Z AUTO 05006KT 10SM CLR 03/M14 A3015 RMK AO2 SLP188 T00281144 53002
KIGM 131351Z AUTO 05003KT 10SM CLR 01/M16 A3015 RMK AO2 SLP189 T00061156
KIGM 131251Z AUTO 11003KT 10SM CLR M01/M16 A3014 RMK AO2 SLP187 T10061161
KIGM 131151Z AUTO 08004KT 10SM CLR 01/M16 A3015 RMK AO2 SLP176 T00061161 10050 20000 58009
KIGM 131051Z AUTO 08006KT 10SM CLR 02/M16 A3016 RMK AO2 SLP177 T00221156
KIGM 130951Z AUTO VRB03KT 10SM CLR 03/M16 A3017 RMK AO2 SLP181 T00331156
KIGM 130851Z AUTO 10005KT 10SM CLR 02/M16 A3017 RMK AO2 SLP183 T00221156 58009
KIGM 130751Z AUTO 08004KT 10SM CLR 02/M16 A3019 RMK AO2 SLP189 T00221161
KIGM 130651Z AUTO 00000KT 10SM CLR 02/M17 A3020 RMK AO2 SLP193 T00171167 401891033
KIGM 130551Z AUTO 09004KT 10SM CLR 04/M17 A3020 RMK AO2 SLP196 T00391167 10167 20033 58002
KIGM 130451Z AUTO 11007KT 10SM CLR 04/M17 A3020 RMK AO2 SLP200 T00391167
KIGM 130351Z AUTO 10007KT 10SM CLR 06/M17 A3021 RMK AO2 SLP204 T00561167
KIGM 130251Z AUTO 11009KT 10SM CLR 07/M17 A3021 RMK AO2 SLP208 T00671167 53001
KIGM 130151Z AUTO 08005KT 10SM CLR 08/M17 A3021 RMK AO2 SLP212 T00831172
KIGM 130051Z AUTO 12006KT 10SM CLR 08/M17 A3020 RMK AO2 SLP201 T00831172
KIGM 122351Z AUTO 07004KT 10SM CLR 17/M16 A3021 RMK AO2 SLP202 T01671161 10189 20133 56014
KIGM 122251Z AUTO 04007KT 10SM CLR 19/M16 A3022 RMK AO2 SLP199 T01891161